createdAt,value
2023-07-17T00:00:07.903Z,21.47
2023-07-17T00:02:38.010Z,21.44
2023-07-17T00:05:07.141Z,21.38
2023-07-17T00:07:35.604Z,21.32
2023-07-17T00:10:05.191Z,21.28
2023-07-17T00:12:33.691Z,21.24
2023-07-17T00:15:05.863Z,21.25
2023-07-17T00:17:34.914Z,21.26
2023-07-17T00:20:07.791Z,21.33
2023-07-17T00:22:36.603Z,21.35
2023-07-17T00:25:06.047Z,21.35
2023-07-17T00:27:36.350Z,21.34
2023-07-17T00:30:05.619Z,21.35
2023-07-17T00:32:34.046Z,21.30
2023-07-17T00:35:04.090Z,21.25
2023-07-17T00:37:32.476Z,21.17
2023-07-17T00:40:00.889Z,21.10
2023-07-17T00:42:29.256Z,21.06
2023-07-17T00:44:57.632Z,21.06
2023-07-17T00:47:26.521Z,21.00
2023-07-17T00:49:54.979Z,20.98
2023-07-17T00:52:25.156Z,20.91
2023-07-17T00:54:54.368Z,20.84
2023-07-17T00:57:26.247Z,20.80
2023-07-17T00:59:54.830Z,20.79
2023-07-17T01:02:25.125Z,20.79
2023-07-17T01:04:53.680Z,20.74
2023-07-17T01:07:22.029Z,20.79
2023-07-17T01:09:53.009Z,20.74
2023-07-17T01:12:21.474Z,20.73
2023-07-17T01:14:49.881Z,20.74
2023-07-17T01:17:18.268Z,20.75
2023-07-17T01:19:46.649Z,20.74
2023-07-17T01:22:21.592Z,20.72
2023-07-17T01:24:51.318Z,20.70
2023-07-17T01:27:19.876Z,20.70
2023-07-17T01:29:48.550Z,20.67
2023-07-17T01:32:21.127Z,20.61
2023-07-17T01:34:49.521Z,20.60
2023-07-17T01:37:17.961Z,20.59
2023-07-17T01:39:46.361Z,20.56
2023-07-17T01:42:16.055Z,20.54
2023-07-17T01:44:44.450Z,20.47
2023-07-17T01:47:13.118Z,20.44
2023-07-17T01:49:42.045Z,20.40
2023-07-17T01:52:11.608Z,20.34
2023-07-17T01:54:40.135Z,20.29
2023-07-17T01:57:08.930Z,20.30
2023-07-17T01:59:38.789Z,20.28
2023-07-17T02:02:07.605Z,20.29
2023-07-17T02:04:36.372Z,20.28
2023-07-17T02:07:05.083Z,20.24
2023-07-17T02:09:33.539Z,20.20
2023-07-17T02:12:01.909Z,20.20
2023-07-17T02:14:30.286Z,20.22
2023-07-17T02:17:00.235Z,20.17
2023-07-17T02:19:29.070Z,20.12
2023-07-17T02:21:57.496Z,20.06
2023-07-17T02:24:25.840Z,19.98
2023-07-17T02:26:54.874Z,19.97
2023-07-17T02:29:23.300Z,19.99
2023-07-17T02:31:51.673Z,19.83
2023-07-17T02:34:21.664Z,19.71
2023-07-17T02:36:50.535Z,19.67
2023-07-17T02:39:18.892Z,19.62
2023-07-17T02:41:47.244Z,19.69
2023-07-17T02:44:15.621Z,19.65
2023-07-17T02:46:43.966Z,19.58
2023-07-17T02:49:14.928Z,19.56
2023-07-17T02:51:44.686Z,19.51
2023-07-17T02:54:13.020Z,19.34
2023-07-17T02:56:41.329Z,19.25
2023-07-17T02:59:09.662Z,19.18
2023-07-17T03:01:38.017Z,19.13
2023-07-17T03:04:07.186Z,19.11
2023-07-17T03:06:35.541Z,19.16
2023-07-17T03:09:05.272Z,19.22
2023-07-17T03:11:33.748Z,19.20
2023-07-17T03:14:02.158Z,19.18
2023-07-17T03:16:30.539Z,19.21
2023-07-17T03:18:59.442Z,19.22
2023-07-17T03:21:28.133Z,19.18
2023-07-17T03:23:56.670Z,19.18
2023-07-17T03:26:26.354Z,19.20
2023-07-17T03:28:54.728Z,19.20
2023-07-17T03:31:23.163Z,19.21
2023-07-17T03:33:51.616Z,19.22
2023-07-17T03:36:20.067Z,19.18
2023-07-17T03:38:48.459Z,19.17
2023-07-17T03:41:18.865Z,19.15
2023-07-17T03:43:48.846Z,19.13
2023-07-17T03:46:17.206Z,19.05
2023-07-17T03:48:45.514Z,18.96
2023-07-17T03:51:13.883Z,18.96
2023-07-17T03:53:42.286Z,18.95
2023-07-17T03:56:10.644Z,18.95
2023-07-17T03:58:39.046Z,18.96
2023-07-17T04:01:08.780Z,18.93
2023-07-17T04:03:37.346Z,18.90
2023-07-17T04:06:05.811Z,18.88
2023-07-17T04:08:34.166Z,18.83
2023-07-17T04:11:03.465Z,18.82
2023-07-17T04:13:31.838Z,18.82
2023-07-17T04:16:01.954Z,18.78
2023-07-17T04:18:31.655Z,18.74
2023-07-17T04:20:59.964Z,18.74
2023-07-17T04:23:28.432Z,18.70
2023-07-17T04:25:56.794Z,18.65
2023-07-17T04:28:26.161Z,18.57
2023-07-17T04:30:54.700Z,18.40
2023-07-17T04:33:23.114Z,18.35
2023-07-17T04:35:52.790Z,18.34
2023-07-17T04:38:21.130Z,18.38
2023-07-17T04:40:49.594Z,18.36
2023-07-17T04:43:18.015Z,18.36
2023-07-17T04:45:46.390Z,18.35
2023-07-17T04:48:14.789Z,18.36
2023-07-17T04:50:47.036Z,18.40
2023-07-17T04:53:16.828Z,18.43
2023-07-17T04:55:45.142Z,18.56
2023-07-17T04:58:13.724Z,18.58
2023-07-17T05:00:44.062Z,18.62
2023-07-17T05:03:12.844Z,18.67
2023-07-17T05:05:41.607Z,18.70
2023-07-17T05:08:09.984Z,18.76
2023-07-17T05:10:39.736Z,18.83
2023-07-17T05:13:08.089Z,18.86
2023-07-17T05:15:36.533Z,18.91
2023-07-17T05:18:05.445Z,18.91
2023-07-17T05:20:33.815Z,18.98
2023-07-17T05:23:02.328Z,18.98
2023-07-17T05:25:30.718Z,18.98
2023-07-17T05:28:00.455Z,18.95
2023-07-17T05:30:28.943Z,18.96
2023-07-17T05:32:57.450Z,18.96
2023-07-17T05:35:25.888Z,19.01
2023-07-17T05:37:55.577Z,19.03
2023-07-17T05:40:24.310Z,19.08
2023-07-17T05:42:52.766Z,19.06
2023-07-17T05:45:22.581Z,19.08
2023-07-17T05:47:51.037Z,19.08
2023-07-17T05:50:20.322Z,19.11
2023-07-17T05:52:48.713Z,19.10
2023-07-17T05:55:17.214Z,19.10
2023-07-17T05:57:45.704Z,19.11
2023-07-17T06:00:15.993Z,19.18
2023-07-17T06:02:47.412Z,19.20
2023-07-17T06:05:16.081Z,19.19
2023-07-17T06:07:44.581Z,19.19
2023-07-17T06:10:13.801Z,19.24
2023-07-17T06:12:42.313Z,19.27
2023-07-17T06:15:12.239Z,19.37
2023-07-17T06:17:40.697Z,19.47
2023-07-17T06:20:11.178Z,19.54
2023-07-17T06:22:39.837Z,19.65
2023-07-17T06:25:08.719Z,19.77
2023-07-17T06:27:37.044Z,19.89
2023-07-17T06:30:06.116Z,20.03
2023-07-17T06:32:35.295Z,20.17
2023-07-17T06:35:06.517Z,20.34
2023-07-17T06:37:36.378Z,20.49
2023-07-17T06:40:06.115Z,20.70
2023-07-17T06:42:34.724Z,20.84
2023-07-17T06:45:03.829Z,20.98
2023-07-17T06:47:37.422Z,21.03
2023-07-17T06:50:07.962Z,21.07
2023-07-17T06:52:39.542Z,21.08
2023-07-17T06:55:10.718Z,21.09
2023-07-17T06:57:39.185Z,21.15
2023-07-17T07:00:09.276Z,21.23
2023-07-17T07:02:38.023Z,21.29
2023-07-17T07:05:08.882Z,21.37
2023-07-17T07:07:38.630Z,21.50
2023-07-17T07:10:09.263Z,21.49
2023-07-17T07:12:37.637Z,21.57
2023-07-17T07:15:08.099Z,21.66
2023-07-17T07:17:36.535Z,21.65
2023-07-17T07:20:06.125Z,21.73
2023-07-17T07:22:34.667Z,21.66
2023-07-17T07:25:04.552Z,21.63
2023-07-17T07:27:33.171Z,21.65
2023-07-17T07:30:01.587Z,21.67
2023-07-17T07:32:29.968Z,21.68
2023-07-17T07:34:58.325Z,21.65
2023-07-17T07:37:26.730Z,21.73
2023-07-17T07:39:55.146Z,21.82
2023-07-17T07:42:24.892Z,21.86
2023-07-17T07:44:53.209Z,21.95
2023-07-17T07:47:21.672Z,22.07
2023-07-17T07:49:50.057Z,22.18
2023-07-17T07:52:18.455Z,22.23
2023-07-17T07:54:47.166Z,22.30
2023-07-17T07:57:15.619Z,22.33
2023-07-17T07:59:45.347Z,22.40
2023-07-17T08:02:15.755Z,22.37
2023-07-17T08:04:44.665Z,22.42
2023-07-17T08:07:13.177Z,22.50
2023-07-17T08:09:41.499Z,22.60
2023-07-17T08:12:10.324Z,22.70
2023-07-17T08:14:38.736Z,22.66
2023-07-17T08:17:08.631Z,22.76
2023-07-17T08:19:37.005Z,22.82
2023-07-17T08:22:05.781Z,22.85
2023-07-17T08:24:34.153Z,23.00
2023-07-17T08:27:02.552Z,22.98
2023-07-17T08:29:30.945Z,23.12
2023-07-17T08:32:00.015Z,23.18
2023-07-17T08:34:31.569Z,23.39
2023-07-17T08:36:59.883Z,23.28
2023-07-17T08:44:12.734Z,23.40
2023-07-17T08:46:41.388Z,23.49
2023-07-17T08:49:12.066Z,23.55
2023-07-17T08:51:41.943Z,23.57
2023-07-17T08:54:28.600Z,23.66
2023-07-17T08:57:04.193Z,23.74
2023-07-17T08:59:33.684Z,23.86
2023-07-17T09:02:02.865Z,23.85
2023-07-17T09:04:32.494Z,23.78
2023-07-17T09:07:09.736Z,23.66
2023-07-17T09:09:38.135Z,23.66
2023-07-17T09:12:10.838Z,23.73
2023-07-17T09:14:40.599Z,23.71
2023-07-17T09:17:09.724Z,23.67
2023-07-17T09:19:38.940Z,23.71
2023-07-17T09:22:09.333Z,23.76
2023-07-17T09:24:39.316Z,23.89
2023-07-17T09:27:08.923Z,23.99
2023-07-17T09:29:42.831Z,24.11
2023-07-17T09:32:21.062Z,24.21
2023-07-17T09:34:53.236Z,24.21
2023-07-17T09:37:24.342Z,24.32
2023-07-17T09:39:54.107Z,24.52
2023-07-17T09:42:25.784Z,24.50
2023-07-17T09:44:55.252Z,24.48
2023-07-17T09:47:24.170Z,24.54
2023-07-17T09:49:53.277Z,24.60
2023-07-17T09:52:23.184Z,24.60
2023-07-17T09:54:52.798Z,24.56
2023-07-17T09:57:29.085Z,24.65
2023-07-17T09:59:58.834Z,24.71
2023-07-17T10:02:32.554Z,24.83
2023-07-17T10:05:02.516Z,24.86
2023-07-17T10:07:33.212Z,24.92
2023-07-17T10:10:02.132Z,24.99
2023-07-17T10:12:31.860Z,24.87
2023-07-17T10:15:01.541Z,24.88
2023-07-17T10:17:31.841Z,24.77
2023-07-17T10:20:02.163Z,24.62
2023-07-17T10:22:35.853Z,24.62
2023-07-17T10:25:25.009Z,24.81
2023-07-17T10:27:58.154Z,24.97
2023-07-17T10:30:29.521Z,25.12
2023-07-17T10:33:15.224Z,25.29
2023-07-17T10:35:48.657Z,25.48
2023-07-17T10:38:20.190Z,25.79
2023-07-17T10:40:48.686Z,26.04
2023-07-17T10:43:21.416Z,26.37
2023-07-17T10:45:50.063Z,26.20
2023-07-17T10:48:19.612Z,25.90
2023-07-17T10:50:52.706Z,25.55
2023-07-17T10:53:24.453Z,25.32
2023-07-17T10:55:54.071Z,25.42
2023-07-17T10:58:23.034Z,25.73
2023-07-17T11:00:53.197Z,26.10
2023-07-17T11:03:24.155Z,26.42
2023-07-17T11:05:56.323Z,26.63
2023-07-17T11:08:27.546Z,26.29
2023-07-17T11:10:56.201Z,26.00
2023-07-17T11:13:31.110Z,25.75
2023-07-17T11:16:07.419Z,25.66
2023-07-17T11:18:46.143Z,25.73
2023-07-17T11:21:15.537Z,25.96
2023-07-17T11:23:52.674Z,26.33
2023-07-17T11:26:24.390Z,26.69
2023-07-17T11:28:54.767Z,26.88
2023-07-17T11:31:26.489Z,26.74
2023-07-17T11:33:59.774Z,26.29
2023-07-17T11:36:29.083Z,26.20
2023-07-17T11:39:11.252Z,26.52
2023-07-17T11:41:44.284Z,26.75
2023-07-17T11:44:13.315Z,26.46
2023-07-17T11:46:42.274Z,26.33
2023-07-17T11:49:11.445Z,26.30
2023-07-17T11:51:45.443Z,26.30
2023-07-17T11:54:15.241Z,26.64
2023-07-17T11:56:44.986Z,27.06
2023-07-17T11:59:20.902Z,27.39
2023-07-17T12:01:49.905Z,27.43
2023-07-17T12:04:23.187Z,27.54
2023-07-17T12:06:54.197Z,27.73
2023-07-17T12:09:24.709Z,27.76
2023-07-17T12:11:53.168Z,27.89
2023-07-17T12:14:21.597Z,28.02
2023-07-17T12:16:50.299Z,28.14
2023-07-17T12:19:20.145Z,28.10
2023-07-17T12:21:50.072Z,28.11
2023-07-17T12:24:18.544Z,27.89
2023-07-17T12:26:48.929Z,28.11
2023-07-17T12:29:17.394Z,28.35
2023-07-17T12:31:45.902Z,28.62
2023-07-17T12:34:14.394Z,28.40
2023-07-17T12:36:42.799Z,28.32
2023-07-17T12:39:15.696Z,28.49
2023-07-17T12:41:44.810Z,28.49
2023-07-17T12:44:14.642Z,28.25
2023-07-17T12:46:44.405Z,27.86
2023-07-17T12:49:14.233Z,27.64
2023-07-17T12:51:42.944Z,27.37
2023-07-17T12:54:12.985Z,27.14
2023-07-17T12:56:42.108Z,26.92
2023-07-17T12:59:10.762Z,26.91
2023-07-17T13:01:40.958Z,27.38
2023-07-17T13:04:09.874Z,27.74
2023-07-17T13:06:38.301Z,27.90
2023-07-17T13:09:08.917Z,28.14
2023-07-17T13:11:37.923Z,28.14
2023-07-17T13:14:07.255Z,28.58
2023-07-17T13:16:36.398Z,28.41
2023-07-17T13:19:06.307Z,28.48
2023-07-17T13:21:34.768Z,28.81
2023-07-17T13:24:04.145Z,28.88
2023-07-17T13:26:35.318Z,29.02
2023-07-17T13:29:05.546Z,28.76
2023-07-17T13:31:34.048Z,28.75
2023-07-17T13:34:02.607Z,28.79
2023-07-17T13:36:32.404Z,28.99
2023-07-17T13:39:00.795Z,29.21
2023-07-17T13:41:44.374Z,29.03
2023-07-17T13:44:14.987Z,29.14
2023-07-17T13:46:44.723Z,29.23
2023-07-17T13:49:13.843Z,29.27
2023-07-17T13:51:46.148Z,29.33
2023-07-17T13:54:20.641Z,29.04
2023-07-17T13:59:21.172Z,29.35
2023-07-17T14:01:49.736Z,29.02
2023-07-17T14:04:18.362Z,28.93
2023-07-17T14:06:48.169Z,28.80
2023-07-17T14:09:16.591Z,28.92
2023-07-17T14:11:45.622Z,29.22
2023-07-17T14:14:14.202Z,29.52
2023-07-17T14:16:42.818Z,29.42
2023-07-17T14:19:11.180Z,29.16
2023-07-17T14:21:39.510Z,28.96
2023-07-17T14:24:09.376Z,28.91
2023-07-17T14:26:37.713Z,28.71
2023-07-17T14:29:06.166Z,28.00
2023-07-17T14:31:34.571Z,27.59
2023-07-17T14:34:02.938Z,27.23
2023-07-17T14:36:31.416Z,26.81
2023-07-17T14:38:59.831Z,26.52
2023-07-17T14:41:32.120Z,26.34
2023-07-17T14:44:01.814Z,26.41
2023-07-17T14:46:30.763Z,26.46
2023-07-17T14:48:59.269Z,27.17
2023-07-17T14:51:27.941Z,27.39
2023-07-17T14:53:56.413Z,27.72
2023-07-17T14:56:24.728Z,27.95
2023-07-17T14:58:54.636Z,28.08
2023-07-17T15:01:23.076Z,28.06
2023-07-17T15:03:51.700Z,28.06
2023-07-17T15:06:20.538Z,28.12
2023-07-17T15:08:49.350Z,28.16
2023-07-17T15:11:18.258Z,28.16
2023-07-17T15:13:46.618Z,28.23
2023-07-17T15:16:16.582Z,28.24
2023-07-17T15:18:45.049Z,28.28
2023-07-17T15:21:13.437Z,27.99
2023-07-17T15:23:41.817Z,27.94
2023-07-17T15:26:10.162Z,27.85
2023-07-17T15:28:38.459Z,27.57
2023-07-17T15:31:10.202Z,27.66
2023-07-17T15:33:40.172Z,27.72
2023-07-17T15:36:08.582Z,27.44
2023-07-17T15:38:36.932Z,27.50
2023-07-17T15:41:05.530Z,27.58
2023-07-17T15:43:35.166Z,27.77
2023-07-17T15:46:03.491Z,27.79
2023-07-17T15:48:31.857Z,27.87
2023-07-17T15:51:01.520Z,27.87
2023-07-17T15:53:29.877Z,27.89
2023-07-17T15:55:58.303Z,27.93
2023-07-17T15:58:26.849Z,27.83
2023-07-17T16:00:55.340Z,27.75
2023-07-17T16:03:23.764Z,27.49
2023-07-17T16:05:52.161Z,27.12
2023-07-17T16:08:21.890Z,26.84
2023-07-17T16:10:50.306Z,26.51
2023-07-17T16:13:19.063Z,26.18
2023-07-17T16:15:47.510Z,26.17
2023-07-17T16:18:15.966Z,26.04
2023-07-17T16:20:44.578Z,26.04
2023-07-17T16:23:13.262Z,26.01
2023-07-17T16:25:43.017Z,25.93
2023-07-17T16:28:11.361Z,25.73
2023-07-17T16:30:40.072Z,25.77
2023-07-17T16:33:08.602Z,25.77
2023-07-17T16:35:37.691Z,25.72
2023-07-17T16:38:06.148Z,25.64
2023-07-17T16:40:35.722Z,25.72
2023-07-17T16:43:05.466Z,25.75
2023-07-17T16:45:33.938Z,25.74
2023-07-17T16:48:02.354Z,25.81
2023-07-17T16:50:30.754Z,25.73
2023-07-17T16:52:59.060Z,25.65
2023-07-17T16:55:27.579Z,25.66
2023-07-17T16:57:55.946Z,25.68
2023-07-17T17:00:26.381Z,25.74
2023-07-17T17:02:55.032Z,25.54
2023-07-17T17:05:23.869Z,25.48
2023-07-17T17:07:52.241Z,25.40
2023-07-17T17:10:20.880Z,25.49
2023-07-17T17:12:49.287Z,25.32
2023-07-17T17:15:17.623Z,25.24
2023-07-17T17:17:47.351Z,25.20
2023-07-17T17:20:16.784Z,25.22
2023-07-17T17:22:45.169Z,25.20
2023-07-17T17:25:13.597Z,25.10
2023-07-17T17:27:41.926Z,24.99
2023-07-17T17:30:10.645Z,24.86
2023-07-17T17:32:39.278Z,24.82
2023-07-17T17:35:09.532Z,24.82
2023-07-17T17:37:37.992Z,24.71
2023-07-17T17:40:09.889Z,24.62
2023-07-17T17:42:38.522Z,24.64
2023-07-17T17:45:11.057Z,24.67
2023-07-17T17:47:39.592Z,24.60
2023-07-17T17:50:10.226Z,24.65
2023-07-17T17:52:38.754Z,24.64
2023-07-17T17:55:08.059Z,24.58
2023-07-17T17:57:36.435Z,24.59
2023-07-17T18:00:07.417Z,24.56
2023-07-17T18:02:35.994Z,24.52
2023-07-17T18:05:04.848Z,24.44
2023-07-17T18:07:34.688Z,24.45
2023-07-17T18:10:03.460Z,24.39
2023-07-17T18:12:31.912Z,24.33
2023-07-17T18:15:00.268Z,24.38
2023-07-17T18:17:28.722Z,24.34
2023-07-17T18:19:57.193Z,24.35
2023-07-17T18:22:25.941Z,24.38
2023-07-17T18:24:55.791Z,24.32
2023-07-17T18:27:24.154Z,24.29
2023-07-17T18:29:52.691Z,24.17
2023-07-17T18:32:21.171Z,24.18
2023-07-17T18:34:49.666Z,24.06
2023-07-17T18:37:18.071Z,24.04
2023-07-17T18:39:46.574Z,24.02
2023-07-17T18:42:16.958Z,23.98
2023-07-17T18:44:46.239Z,23.99
2023-07-17T18:47:15.959Z,24.02
2023-07-17T18:49:44.344Z,23.94
2023-07-17T18:52:12.779Z,23.77
2023-07-17T18:54:41.553Z,23.79
2023-07-17T18:57:09.975Z,23.72
2023-07-17T18:59:39.872Z,23.74
2023-07-17T19:02:08.257Z,23.75
2023-07-17T19:04:37.387Z,23.72
2023-07-17T19:07:06.289Z,23.55
2023-07-17T19:09:34.759Z,23.39
2023-07-17T19:12:05.073Z,23.25
2023-07-17T19:14:34.961Z,22.95
2023-07-17T19:17:04.883Z,22.68
2023-07-17T19:19:33.195Z,22.47
2023-07-17T19:22:02.398Z,22.29
2023-07-17T19:24:31.860Z,22.20
2023-07-17T19:27:01.988Z,22.08
2023-07-17T19:29:30.575Z,21.98
2023-07-17T19:31:59.004Z,21.93
2023-07-17T19:34:31.469Z,21.85
2023-07-17T19:36:59.812Z,21.71
2023-07-17T19:39:29.255Z,21.62
2023-07-17T19:41:57.946Z,21.61
2023-07-17T19:44:26.341Z,21.43
2023-07-17T19:46:55.562Z,21.32
2023-07-17T19:49:24.145Z,21.16
2023-07-17T19:51:54.785Z,21.10
2023-07-17T19:54:23.154Z,20.97
2023-07-17T19:56:51.773Z,20.83
2023-07-17T19:59:20.159Z,20.80
2023-07-17T20:01:48.569Z,20.78
2023-07-17T20:04:17.711Z,20.76
2023-07-17T20:06:46.297Z,20.74
2023-07-17T20:09:16.098Z,20.67
2023-07-17T20:11:44.478Z,20.64
2023-07-17T20:14:12.860Z,20.60
2023-07-17T20:16:41.371Z,20.58
2023-07-17T20:19:11.179Z,20.56
2023-07-17T20:21:39.931Z,20.54
2023-07-17T20:24:08.681Z,20.52
2023-07-17T20:26:38.484Z,20.45
2023-07-17T20:29:06.858Z,20.42
2023-07-17T20:31:35.422Z,20.39
2023-07-17T20:34:03.862Z,20.34
2023-07-17T20:36:32.218Z,20.31
2023-07-17T20:39:00.602Z,20.28
2023-07-17T20:41:29.024Z,20.26
2023-07-17T20:43:58.736Z,20.21
2023-07-17T20:46:28.714Z,20.25
2023-07-17T20:48:57.228Z,20.22
2023-07-17T20:51:25.735Z,20.18
2023-07-17T20:53:54.240Z,20.14
2023-07-17T20:56:22.818Z,20.09
2023-07-17T20:58:52.574Z,20.09
2023-07-17T21:01:26.046Z,20.12
2023-07-17T21:03:57.968Z,20.07
2023-07-17T21:06:27.247Z,20.09
2023-07-17T21:08:56.188Z,20.02
2023-07-17T21:11:24.950Z,19.95
2023-07-17T21:13:54.420Z,19.98
2023-07-17T21:16:24.328Z,19.95
2023-07-17T21:18:54.846Z,19.80
2023-07-17T21:21:23.324Z,19.75
2023-07-17T21:23:51.709Z,19.81
2023-07-17T21:26:20.083Z,19.80
2023-07-17T21:28:58.098Z,19.70
2023-07-17T21:31:27.887Z,19.57
2023-07-17T21:33:56.460Z,19.49
2023-07-17T21:36:24.953Z,19.48
2023-07-17T21:38:53.373Z,19.44
2023-07-17T21:41:22.262Z,19.44
2023-07-17T21:43:50.979Z,19.40
2023-07-17T21:46:19.420Z,19.41
2023-07-17T21:48:49.252Z,19.37
2023-07-17T21:51:20.627Z,19.32
2023-07-17T21:53:49.405Z,19.33
2023-07-17T21:56:20.551Z,19.38
2023-07-17T21:58:48.943Z,19.42
2023-07-17T22:01:17.616Z,19.27
2023-07-17T22:03:46.461Z,19.28
2023-07-17T22:06:16.315Z,19.21
2023-07-17T22:08:44.690Z,19.09
2023-07-17T22:11:13.152Z,19.04
2023-07-17T22:13:41.721Z,18.98
2023-07-17T22:16:10.269Z,18.83
2023-07-17T22:18:41.659Z,18.76
2023-07-17T22:21:10.153Z,18.70
2023-07-17T22:23:39.935Z,18.68
2023-07-17T22:26:08.834Z,18.65
2023-07-17T22:28:37.396Z,18.57
2023-07-17T22:31:06.137Z,18.56
2023-07-17T22:33:34.885Z,18.58
2023-07-17T22:36:03.277Z,18.47
2023-07-17T22:38:31.959Z,18.43
2023-07-17T22:41:01.801Z,18.36
2023-07-17T22:43:30.186Z,18.23
2023-07-17T22:45:58.685Z,18.23
2023-07-17T22:48:29.086Z,18.06
2023-07-17T22:50:57.499Z,18.04
2023-07-17T22:53:26.222Z,18.04
2023-07-17T22:55:55.718Z,17.97
2023-07-17T22:58:25.487Z,18.03
2023-07-17T23:00:54.230Z,17.97
2023-07-17T23:03:23.039Z,18.02
2023-07-17T23:05:51.450Z,17.91
2023-07-17T23:08:19.929Z,17.93
2023-07-17T23:10:48.956Z,17.83
2023-07-17T23:13:17.358Z,17.85
2023-07-17T23:15:47.205Z,17.82
2023-07-17T23:18:15.748Z,17.84
2023-07-17T23:20:44.286Z,17.87
2023-07-17T23:23:13.568Z,17.78
2023-07-17T23:25:44.326Z,17.75
2023-07-17T23:28:13.287Z,17.74
2023-07-17T23:30:41.731Z,17.75
2023-07-17T23:33:11.611Z,17.70
2023-07-17T23:35:41.395Z,17.66
2023-07-17T23:38:09.801Z,17.63
2023-07-17T23:40:38.204Z,17.57
2023-07-17T23:43:09.033Z,17.55
2023-07-17T23:45:38.143Z,17.48
2023-07-17T23:48:07.077Z,17.39
2023-07-17T23:50:37.402Z,17.31
2023-07-17T23:53:05.890Z,17.29
2023-07-17T23:55:34.492Z,17.16
2023-07-17T23:58:05.082Z,17.03
